createdAt,value
2022-11-30T00:00:20.829Z,101300.81
2022-11-30T00:01:24.871Z,101296.41
2022-11-30T00:02:27.130Z,101296.66
2022-11-30T00:03:29.463Z,101302.66
2022-11-30T00:04:31.863Z,101300.06
2022-11-30T00:05:34.497Z,101294.06
2022-11-30T00:06:36.750Z,101303.19
2022-11-30T00:07:39.627Z,101305.06
2022-11-30T00:08:42.669Z,101306.66
2022-11-30T00:09:44.920Z,101300.41
2022-11-30T00:10:47.221Z,101312.63
2022-11-30T00:11:49.586Z,101297.28
2022-11-30T00:12:52.016Z,101302.16
2022-11-30T00:13:55.208Z,101305.19
2022-11-30T00:14:57.504Z,101305.13
2022-11-30T00:16:02.724Z,101305.13
2022-11-30T00:17:05.312Z,101310.41
2022-11-30T00:18:07.852Z,101307.28
2022-11-30T00:19:10.213Z,101308.31
2022-11-30T00:20:14.584Z,101300.88
2022-11-30T00:21:17.324Z,101304.69
2022-11-30T00:22:22.670Z,101304.31
2022-11-30T00:23:24.860Z,101317.31
2022-11-30T00:24:27.146Z,101314.91
2022-11-30T00:25:29.415Z,101308.66
2022-11-30T00:26:31.969Z,101312.75
2022-11-30T00:27:34.858Z,101320.28
2022-11-30T00:28:38.216Z,101312.25
2022-11-30T00:29:40.538Z,101311.78
2022-11-30T00:30:42.819Z,101312.63
2022-11-30T00:31:45.460Z,101322.47
2022-11-30T00:32:47.807Z,101308.94
2022-11-30T00:33:50.386Z,101311.25
2022-11-30T00:34:52.842Z,101309.13
2022-11-30T00:36:00.448Z,101320.81
2022-11-30T00:37:04.623Z,101315.03
2022-11-30T00:38:06.859Z,101318.19
2022-11-30T00:39:09.134Z,101309.84
2022-11-30T00:40:12.186Z,101316.81
2022-11-30T00:41:14.609Z,101317.91
2022-11-30T00:42:17.109Z,101316.59
2022-11-30T00:43:19.498Z,101323.13
2022-11-30T00:44:21.717Z,101324.63
2022-11-30T00:45:24.196Z,101322.44
2022-11-30T00:46:26.480Z,101325.28
2022-11-30T00:47:28.948Z,101326.56
2022-11-30T00:48:31.294Z,101320.81
2022-11-30T00:49:34.222Z,101319.97
2022-11-30T00:50:36.561Z,101319.91
2022-11-30T00:51:39.333Z,101317.81
2022-11-30T00:52:41.814Z,101316.94
2022-11-30T00:53:44.572Z,101310.91
2022-11-30T00:54:47.238Z,101319.19
2022-11-30T00:55:49.777Z,101319.19
2022-11-30T00:56:53.683Z,101314.44
2022-11-30T00:57:59.054Z,101307.16
2022-11-30T00:59:01.301Z,101322.03
2022-11-30T01:00:04.461Z,101314.44
2022-11-30T01:01:08.262Z,101316.75
2022-11-30T01:02:10.728Z,101314.38
2022-11-30T01:03:13.768Z,101317.25
2022-11-30T01:04:16.260Z,101312.81
2022-11-30T01:05:19.662Z,101321.94
2022-11-30T01:06:21.938Z,101312.88
2022-11-30T01:07:24.269Z,101312.66
2022-11-30T01:08:26.790Z,101316.34
2022-11-30T01:09:29.134Z,101320.81
2022-11-30T01:10:31.473Z,101324.50
2022-11-30T01:11:33.994Z,101318.78
2022-11-30T01:12:36.269Z,101314.09
2022-11-30T01:13:38.558Z,101314.13
2022-11-30T01:14:41.038Z,101318.59
2022-11-30T01:15:45.528Z,101317.28
2022-11-30T01:16:50.847Z,101327.94
2022-11-30T01:18:00.720Z,101327.69
2022-11-30T01:19:03.775Z,101319.00
2022-11-30T01:20:08.147Z,101325.25
2022-11-30T01:21:13.873Z,101320.81
2022-11-30T01:22:16.390Z,101329.19
2022-11-30T01:23:21.681Z,101320.34
2022-11-30T01:24:24.274Z,101319.88
2022-11-30T01:25:26.627Z,101319.06
2022-11-30T01:26:28.914Z,101319.91
2022-11-30T01:27:31.444Z,101319.63
2022-11-30T01:28:34.666Z,101318.03
2022-11-30T01:29:37.053Z,101317.03
2022-11-30T01:30:39.286Z,101312.06
2022-11-30T01:31:41.635Z,101314.13
2022-11-30T01:32:44.355Z,101313.56
2022-11-30T01:33:53.814Z,101314.84
2022-11-30T01:34:56.179Z,101307.75
2022-11-30T01:36:14.582Z,101314.09
2022-11-30T01:37:16.876Z,101317.81
2022-11-30T01:38:19.183Z,101318.59
2022-11-30T01:39:21.352Z,101320.91
2022-11-30T01:40:23.680Z,101311.03
2022-11-30T01:41:31.817Z,101314.47
2022-11-30T01:42:34.335Z,101313.66
2022-11-30T01:43:51.624Z,101309.25
2022-11-30T01:44:59.695Z,101311.31
2022-11-30T01:46:01.929Z,101305.06
2022-11-30T01:47:09.585Z,101306.91
2022-11-30T01:48:12.054Z,101305.84
2022-11-30T01:49:31.838Z,101312.34
2022-11-30T01:50:35.861Z,101313.66
2022-11-30T01:51:43.643Z,101303.03
2022-11-30T01:52:51.612Z,101313.19
2022-11-30T01:53:53.912Z,101312.97
2022-11-30T01:55:06.509Z,101310.66
2022-11-30T01:56:08.762Z,101315.84
2022-11-30T01:57:23.005Z,101315.56
2022-11-30T01:58:28.558Z,101308.34
2022-11-30T01:59:31.782Z,101310.16
2022-11-30T02:00:41.316Z,101306.78
2022-11-30T02:01:45.434Z,101309.59
2022-11-30T02:03:00.026Z,101314.53
2022-11-30T02:04:13.968Z,101318.06
2022-11-30T02:05:18.223Z,101312.63
2022-11-30T02:06:21.402Z,101316.56
2022-11-30T02:07:24.750Z,101308.22
2022-11-30T02:08:28.051Z,101319.50
2022-11-30T02:09:34.564Z,101322.69
2022-11-30T02:10:40.184Z,101319.00
2022-11-30T02:11:43.466Z,101319.50
2022-11-30T02:13:16.362Z,101316.16
2022-11-30T02:14:45.661Z,101322.38
2022-11-30T02:16:00.438Z,101322.44
2022-11-30T02:17:26.708Z,101318.22
2022-11-30T02:18:53.679Z,101316.88
2022-11-30T02:20:18.509Z,101318.88
2022-11-30T02:21:32.179Z,101322.28
2022-11-30T02:22:53.275Z,101318.31
2022-11-30T02:24:24.219Z,101318.78
2022-11-30T02:25:54.524Z,101323.03
2022-11-30T02:27:21.618Z,101315.94
2022-11-30T02:28:43.886Z,101321.91
2022-11-30T02:29:57.613Z,101324.75
2022-11-30T02:31:03.580Z,101321.06
2022-11-30T02:32:12.569Z,101316.59
2022-11-30T02:33:21.759Z,101313.91
2022-11-30T02:34:28.591Z,101322.25
2022-11-30T02:35:35.038Z,101318.94
2022-11-30T02:36:37.920Z,101317.38
2022-11-30T02:37:42.030Z,101322.41
2022-11-30T02:38:45.149Z,101314.84
2022-11-30T02:39:47.321Z,101320.50
2022-11-30T02:40:49.637Z,101319.81
2022-11-30T02:41:51.840Z,101317.16
2022-11-30T02:42:56.000Z,101324.53
2022-11-30T02:44:01.236Z,101327.94
2022-11-30T02:45:04.318Z,101319.00
2022-11-30T02:46:35.369Z,101328.69
2022-11-30T02:47:47.145Z,101320.81
2022-11-30T02:49:08.664Z,101325.16
2022-11-30T02:50:16.885Z,101322.69
2022-11-30T02:51:24.601Z,101327.09
2022-11-30T02:52:29.714Z,101328.91
2022-11-30T02:53:32.298Z,101323.41
2022-11-30T02:54:37.488Z,101321.81
2022-11-30T02:55:39.962Z,101327.59
2022-11-30T02:56:42.614Z,101326.84
2022-11-30T02:57:44.855Z,101325.03
2022-11-30T02:58:48.565Z,101318.56
2022-11-30T02:59:50.931Z,101316.25
2022-11-30T03:00:53.821Z,101315.50
2022-11-30T03:01:56.717Z,101315.78
2022-11-30T03:02:59.031Z,101314.69
2022-11-30T03:04:01.499Z,101316.25
2022-11-30T03:05:04.362Z,101319.59
2022-11-30T03:06:06.931Z,101319.09
2022-11-30T03:07:09.328Z,101318.16
2022-11-30T03:08:11.954Z,101312.63
2022-11-30T03:09:14.537Z,101305.06
2022-11-30T03:10:16.957Z,101309.78
2022-11-30T03:11:19.262Z,101316.63
2022-11-30T03:12:21.899Z,101308.66
2022-11-30T03:13:24.281Z,101309.59
2022-11-30T03:14:26.562Z,101311.97
2022-11-30T03:15:31.488Z,101306.31
2022-11-30T03:16:34.106Z,101304.69
2022-11-30T03:17:36.454Z,101305.00
2022-11-30T03:18:41.013Z,101306.63
2022-11-30T03:19:43.825Z,101295.16
2022-11-30T03:20:46.180Z,101302.69
2022-11-30T03:21:48.786Z,101297.44
2022-11-30T03:22:51.010Z,101298.00
2022-11-30T03:23:53.454Z,101300.69
2022-11-30T03:24:55.731Z,101299.34
2022-11-30T03:25:59.307Z,101299.59
2022-11-30T03:27:01.855Z,101292.03
2022-11-30T03:28:04.604Z,101300.09
2022-11-30T03:29:07.309Z,101297.97
2022-11-30T03:30:10.157Z,101302.69
2022-11-30T03:31:13.578Z,101295.34
2022-11-30T03:32:16.011Z,101304.31
2022-11-30T03:33:18.428Z,101300.63
2022-11-30T03:34:20.772Z,101302.75
2022-11-30T03:35:23.267Z,101306.44
2022-11-30T03:36:25.634Z,101304.06
2022-11-30T03:37:27.991Z,101312.53
2022-11-30T03:38:30.876Z,101311.47
2022-11-30T03:39:33.109Z,101313.53
2022-11-30T03:40:37.311Z,101310.38
2022-11-30T03:41:40.119Z,101317.94
2022-11-30T03:42:43.001Z,101311.41
2022-11-30T03:43:46.486Z,101316.88
2022-11-30T03:44:49.018Z,101319.72
2022-11-30T03:45:51.765Z,101310.09
2022-11-30T03:46:54.129Z,101308.53
2022-11-30T03:47:56.558Z,101312.63
2022-11-30T03:48:58.874Z,101308.50
2022-11-30T03:50:01.244Z,101306.66
2022-11-30T03:51:04.904Z,101317.41
2022-11-30T03:52:07.130Z,101315.00
2022-11-30T03:53:09.341Z,101311.66
2022-11-30T03:54:11.674Z,101307.25
2022-11-30T03:55:13.995Z,101306.53
2022-11-30T03:56:35.022Z,101308.56
2022-11-30T03:57:37.635Z,101314.59
2022-11-30T03:58:40.673Z,101310.66
2022-11-30T03:59:45.117Z,101316.38
2022-11-30T04:00:47.723Z,101314.34
2022-11-30T04:01:50.139Z,101314.31
2022-11-30T04:02:52.436Z,101310.94
2022-11-30T04:03:55.043Z,101313.53
2022-11-30T04:04:57.524Z,101306.94
2022-11-30T04:06:02.356Z,101311.38
2022-11-30T04:07:05.052Z,101312.13
2022-11-30T04:08:09.854Z,101308.53
2022-11-30T04:09:12.357Z,101312.44
2022-11-30T04:10:14.653Z,101306.69
2022-11-30T04:11:17.522Z,101316.78
2022-11-30T04:12:19.989Z,101306.38
2022-11-30T04:13:23.790Z,101304.06
2022-11-30T04:14:26.071Z,101303.94
2022-11-30T04:15:28.281Z,101311.78
2022-11-30T04:16:30.702Z,101314.25
2022-11-30T04:17:33.018Z,101311.47
2022-11-30T04:18:38.483Z,101309.84
2022-11-30T04:19:41.406Z,101310.63
2022-11-30T04:20:43.948Z,101318.13
2022-11-30T04:21:48.916Z,101307.72
2022-11-30T04:22:51.363Z,101305.34
2022-11-30T04:23:53.670Z,101312.41
2022-11-30T04:24:56.409Z,101305.91
2022-11-30T04:26:11.131Z,101303.50
2022-11-30T04:27:13.454Z,101304.25
2022-11-30T04:28:17.025Z,101304.19
2022-11-30T04:29:19.255Z,101308.38
2022-11-30T04:30:21.577Z,101300.56
2022-11-30T04:31:24.010Z,101306.81
2022-11-30T04:32:26.477Z,101307.38
2022-11-30T04:33:29.024Z,101310.25
2022-11-30T04:34:31.906Z,101311.59
2022-11-30T04:35:34.669Z,101307.94
2022-11-30T04:36:36.976Z,101312.41
2022-11-30T04:37:41.882Z,101304.53
2022-11-30T04:38:44.325Z,101306.91
2022-11-30T04:39:47.431Z,101312.06
2022-11-30T04:40:49.857Z,101303.53
2022-11-30T04:41:52.378Z,101303.00
2022-11-30T04:42:55.134Z,101308.50
2022-11-30T04:43:57.504Z,101314.44
2022-11-30T04:44:59.628Z,101307.09
2022-11-30T04:46:06.081Z,101304.19
2022-11-30T04:47:08.368Z,101314.19
2022-11-30T04:48:10.843Z,101311.59
2022-11-30T04:49:13.352Z,101317.34
2022-11-30T04:50:15.728Z,101315.59
2022-11-30T04:51:18.261Z,101322.31
2022-11-30T04:52:21.459Z,101314.75
2022-11-30T04:53:23.821Z,101313.16
2022-11-30T04:54:26.247Z,101319.16
2022-11-30T04:55:29.619Z,101315.94
2022-11-30T04:56:31.872Z,101307.41
2022-11-30T04:57:34.103Z,101309.47
2022-11-30T04:58:37.080Z,101311.28
2022-11-30T04:59:39.466Z,101311.09
2022-11-30T05:00:41.778Z,101314.00
2022-11-30T05:01:44.250Z,101317.91
2022-11-30T05:02:52.948Z,101314.00
2022-11-30T05:03:57.215Z,101315.06
2022-11-30T05:04:59.623Z,101311.69
2022-11-30T05:06:02.446Z,101308.81
2022-11-30T05:07:04.838Z,101312.69
2022-11-30T05:08:09.630Z,101308.00
2022-11-30T05:09:11.918Z,101312.69
2022-11-30T05:10:14.293Z,101305.16
2022-11-30T05:11:16.545Z,101312.13
2022-11-30T05:12:18.864Z,101315.09
2022-11-30T05:13:22.847Z,101312.44
2022-11-30T05:14:25.266Z,101309.81
2022-11-30T05:15:27.895Z,101315.78
2022-11-30T05:16:30.319Z,101319.50
2022-11-30T05:17:32.868Z,101311.47
2022-11-30T05:18:35.061Z,101318.13
2022-11-30T05:19:37.367Z,101316.56
2022-11-30T05:20:39.603Z,101325.72
2022-11-30T05:21:45.611Z,101328.38
2022-11-30T05:22:49.544Z,101321.75
2022-11-30T05:23:52.534Z,101330.84
2022-11-30T05:24:54.920Z,101325.41
2022-11-30T05:25:57.326Z,101336.06
2022-11-30T05:27:00.111Z,101330.34
2022-11-30T05:28:03.230Z,101333.75
2022-11-30T05:29:07.879Z,101329.63
2022-11-30T05:30:10.872Z,101334.00
2022-11-30T05:31:13.086Z,101330.13
2022-11-30T05:32:15.771Z,101336.59
2022-11-30T05:33:18.293Z,101327.75
2022-11-30T05:34:20.548Z,101334.81
2022-11-30T05:35:22.879Z,101337.66
2022-11-30T05:36:25.388Z,101345.44
2022-11-30T05:37:28.187Z,101336.06
2022-11-30T05:38:33.168Z,101333.97
2022-11-30T05:39:35.451Z,101335.25
2022-11-30T05:40:37.804Z,101338.09
2022-11-30T05:41:40.213Z,101340.16
2022-11-30T05:42:42.593Z,101345.38
2022-11-30T05:43:45.032Z,101332.53
2022-11-30T05:44:48.344Z,101333.25
2022-11-30T05:45:50.901Z,101344.22
2022-11-30T05:46:53.502Z,101339.63
2022-11-30T05:47:56.075Z,101333.41
2022-11-30T05:48:58.367Z,101341.94
2022-11-30T05:50:00.662Z,101345.09
2022-11-30T05:51:11.729Z,101339.63
2022-11-30T05:52:14.133Z,101339.88
2022-11-30T05:53:16.338Z,101342.28
2022-11-30T05:54:37.384Z,101349.50
2022-11-30T05:55:39.858Z,101340.66
2022-11-30T05:56:41.990Z,101345.31
2022-11-30T05:57:45.028Z,101346.84
2022-11-30T05:58:48.337Z,101347.31
2022-11-30T05:59:50.609Z,101342.91
2022-11-30T06:00:52.847Z,101346.09
2022-11-30T06:01:55.420Z,101347.59
2022-11-30T06:03:01.413Z,101337.69
2022-11-30T06:04:09.043Z,101353.31
2022-11-30T06:05:11.430Z,101354.09
2022-11-30T06:06:13.811Z,101346.28
2022-11-30T06:07:16.490Z,101351.47
2022-11-30T06:08:19.994Z,101348.88
2022-11-30T06:09:35.002Z,101351.75
2022-11-30T06:10:37.714Z,101349.84
2022-11-30T06:11:42.800Z,101344.19
2022-11-30T06:12:52.506Z,101345.28
2022-11-30T06:13:58.172Z,101353.63
2022-11-30T06:15:01.450Z,101353.66
2022-11-30T06:16:05.411Z,101347.59
2022-11-30T06:17:07.804Z,101351.25
2022-11-30T06:18:12.837Z,101345.66
2022-11-30T06:19:15.137Z,101350.41
2022-11-30T06:20:17.592Z,101346.94
2022-11-30T06:21:24.479Z,101350.66
2022-11-30T06:22:27.287Z,101351.00
2022-11-30T06:23:30.200Z,101352.78
2022-11-30T06:24:32.579Z,101352.03
2022-11-30T06:25:38.015Z,101356.25
2022-11-30T06:26:43.714Z,101350.72
2022-11-30T06:27:46.052Z,101352.16
2022-11-30T06:28:48.994Z,101357.66
2022-11-30T06:29:51.419Z,101368.09
2022-11-30T06:30:53.753Z,101368.63
2022-11-30T06:31:56.085Z,101362.59
2022-11-30T06:32:58.421Z,101367.09
2022-11-30T06:34:00.625Z,101361.94
2022-11-30T06:35:03.045Z,101366.63
2022-11-30T06:36:05.730Z,101366.06
2022-11-30T06:37:08.325Z,101366.00
2022-11-30T06:38:10.716Z,101367.34
2022-11-30T06:39:13.622Z,101362.47
2022-11-30T06:40:17.338Z,101372.41
2022-11-30T06:41:19.757Z,101374.47
2022-11-30T06:42:21.925Z,101368.19
2022-11-30T06:43:24.185Z,101373.41
2022-11-30T06:44:27.838Z,101371.31
2022-11-30T06:45:31.911Z,101380.66
2022-11-30T06:46:34.369Z,101369.16
2022-11-30T06:47:37.122Z,101369.66
2022-11-30T06:48:40.002Z,101368.63
2022-11-30T06:49:42.228Z,101368.56
2022-11-30T06:50:49.874Z,101377.72
2022-11-30T06:51:55.084Z,101383.72
2022-11-30T06:52:57.320Z,101374.63
2022-11-30T06:53:59.819Z,101382.91
2022-11-30T06:55:02.145Z,101383.84
2022-11-30T06:56:10.528Z,101382.53
2022-11-30T06:57:13.228Z,101385.66
2022-11-30T06:58:16.491Z,101388.78
2022-11-30T06:59:18.771Z,101379.13
2022-11-30T07:00:21.243Z,101394.75
2022-11-30T07:01:23.956Z,101382.72
2022-11-30T07:02:26.519Z,101389.78
2022-11-30T07:03:28.836Z,101388.78
2022-11-30T07:04:31.483Z,101396.78
2022-11-30T07:05:36.050Z,101386.94
2022-11-30T07:06:39.112Z,101388.03
2022-11-30T07:07:43.260Z,101387.22
2022-11-30T07:08:45.703Z,101377.94
2022-11-30T07:09:47.951Z,101389.22
2022-11-30T07:10:50.625Z,101387.66
2022-11-30T07:11:53.213Z,101397.22
2022-11-30T07:12:56.241Z,101375.75
2022-11-30T07:13:58.613Z,101383.03
2022-11-30T07:15:03.433Z,101394.25
2022-11-30T07:16:08.853Z,101384.63
2022-11-30T07:17:11.863Z,101383.31
2022-11-30T07:18:14.239Z,101381.31
2022-11-30T07:19:19.042Z,101381.81
2022-11-30T07:20:21.480Z,101382.38
2022-11-30T07:21:24.075Z,101375.38
2022-11-30T07:22:26.876Z,101376.19
2022-11-30T07:23:54.013Z,101374.34
2022-11-30T07:25:17.325Z,101379.94
2022-11-30T07:26:20.460Z,101383.59
2022-11-30T07:27:23.165Z,101372.72
2022-11-30T07:28:25.635Z,101375.84
2022-11-30T07:29:28.438Z,101385.50
2022-11-30T07:30:31.726Z,101384.19
2022-11-30T07:31:34.977Z,101378.66
2022-11-30T07:32:37.336Z,101383.88
2022-11-30T07:33:39.665Z,101384.19
2022-11-30T07:34:41.942Z,101376.38
2022-11-30T07:35:44.155Z,101381.63
2022-11-30T07:36:46.987Z,101364.94
2022-11-30T07:37:49.485Z,101375.13
2022-11-30T07:38:52.141Z,101377.97
2022-11-30T07:39:54.344Z,101369.06
2022-11-30T07:40:58.259Z,101370.09
2022-11-30T07:42:00.658Z,101368.81
2022-11-30T07:43:02.951Z,101369.69
2022-11-30T07:44:07.010Z,101371.53
2022-11-30T07:45:10.028Z,101368.88
2022-11-30T07:46:14.443Z,101369.16
2022-11-30T07:47:17.181Z,101369.16
2022-11-30T07:48:20.588Z,101367.81
2022-11-30T07:49:24.341Z,101368.69
2022-11-30T07:50:27.045Z,101371.63
2022-11-30T07:51:29.419Z,101371.09
2022-11-30T07:52:31.904Z,101377.16
2022-11-30T07:53:34.577Z,101364.44
2022-11-30T07:54:36.757Z,101374.34
2022-11-30T07:55:39.152Z,101377.75
2022-11-30T07:56:42.098Z,101366.28
2022-11-30T07:57:45.035Z,101357.16
2022-11-30T07:58:48.322Z,101359.22
2022-11-30T07:59:53.713Z,101368.47
2022-11-30T08:01:00.658Z,101368.09
2022-11-30T08:02:03.183Z,101368.72
2022-11-30T08:03:06.275Z,101370.53
2022-11-30T08:04:08.479Z,101360.66
2022-11-30T08:05:12.348Z,101369.56
2022-11-30T08:06:22.390Z,101372.44
2022-11-30T08:07:25.525Z,101369.59
2022-11-30T08:08:36.888Z,101372.72
2022-11-30T08:09:39.392Z,101381.88
2022-11-30T08:10:41.660Z,101369.06
2022-11-30T08:11:43.990Z,101364.38
2022-11-30T08:12:47.121Z,101370.16
2022-11-30T08:13:50.142Z,101373.28
2022-11-30T08:15:18.775Z,101371.69
2022-11-30T08:16:25.889Z,101369.13
2022-11-30T08:17:28.615Z,101377.47
2022-11-30T08:18:31.033Z,101372.78
2022-11-30T08:19:33.538Z,101371.47
2022-11-30T08:20:36.281Z,101371.22
2022-11-30T08:21:38.610Z,101376.19
2022-11-30T08:22:41.078Z,101373.84
2022-11-30T08:23:46.258Z,101375.16
2022-11-30T08:24:48.969Z,101373.31
2022-11-30T08:25:51.717Z,101370.97
2022-11-30T08:26:53.892Z,101376.47
2022-11-30T08:27:56.390Z,101371.22
2022-11-30T08:29:00.246Z,101372.53
2022-11-30T08:30:02.919Z,101375.94
2022-11-30T08:31:09.283Z,101380.66
2022-11-30T08:32:12.533Z,101373.09
2022-11-30T08:33:15.021Z,101369.16
2022-11-30T08:34:17.550Z,101377.00
2022-11-30T08:35:19.938Z,101376.50
2022-11-30T08:36:22.964Z,101370.69
2022-11-30T08:37:25.472Z,101379.09
2022-11-30T08:38:28.485Z,101374.34
2022-11-30T08:39:32.025Z,101370.19
2022-11-30T08:40:34.472Z,101379.31
2022-11-30T08:41:39.011Z,101383.97
2022-11-30T08:42:41.292Z,101384.50
2022-11-30T08:43:43.797Z,101378.47
2022-11-30T08:44:46.237Z,101383.75
2022-11-30T08:45:54.231Z,101385.75
2022-11-30T08:46:58.545Z,101383.63
2022-11-30T08:48:00.816Z,101380.72
2022-11-30T08:50:25.993Z,101383.53
2022-11-30T08:51:37.740Z,101388.69
2022-11-30T08:52:50.048Z,101378.72
2022-11-30T08:53:52.479Z,101376.56
2022-11-30T08:54:55.312Z,101375.06
2022-11-30T08:55:59.007Z,101381.78
2022-11-30T08:57:01.243Z,101375.75
2022-11-30T08:58:04.003Z,101386.00
2022-11-30T08:59:06.321Z,101380.13
2022-11-30T09:00:09.285Z,101382.53
2022-11-30T09:01:16.300Z,101381.34
2022-11-30T09:02:19.885Z,101377.94
2022-11-30T09:03:22.418Z,101380.28
2022-11-30T09:04:25.123Z,101382.22
2022-11-30T09:05:27.358Z,101382.72
2022-11-30T09:06:31.071Z,101379.78
2022-11-30T09:07:33.610Z,101380.81
2022-11-30T09:08:40.846Z,101382.94
2022-11-30T09:09:43.490Z,101382.81
2022-11-30T09:10:45.751Z,101380.38
2022-11-30T09:11:47.974Z,101380.69
2022-11-30T09:12:50.274Z,101378.38
2022-11-30T09:13:58.311Z,101374.94
2022-11-30T09:15:00.861Z,101385.63
2022-11-30T09:16:05.346Z,101378.41
2022-11-30T09:17:08.030Z,101381.34
2022-11-30T09:18:11.413Z,101372.53
2022-11-30T09:19:13.680Z,101380.97
2022-11-30T09:20:16.308Z,101377.03
2022-11-30T09:21:21.855Z,101375.00
2022-11-30T09:22:24.594Z,101376.28
2022-11-30T09:23:27.177Z,101382.56
2022-11-30T09:24:29.534Z,101374.72
2022-11-30T09:25:31.783Z,101378.53
2022-11-30T09:26:34.108Z,101374.81
2022-11-30T09:27:36.529Z,101374.41
2022-11-30T09:28:39.679Z,101376.53
2022-11-30T09:29:42.694Z,101371.25
2022-11-30T09:30:45.097Z,101374.91
2022-11-30T09:31:49.192Z,101369.72
2022-11-30T09:32:51.505Z,101373.06
2022-11-30T09:33:57.411Z,101374.28
2022-11-30T09:34:59.747Z,101371.41
2022-11-30T09:36:05.708Z,101368.75
2022-11-30T09:37:09.640Z,101369.47
2022-11-30T09:38:11.956Z,101364.41
2022-11-30T09:39:15.026Z,101369.53
2022-11-30T09:40:18.106Z,101381.69
2022-11-30T09:41:29.151Z,101368.50
2022-11-30T09:43:04.794Z,101378.06
2022-11-30T09:44:51.182Z,101377.94
2022-11-30T09:46:03.775Z,101372.94
2022-11-30T09:47:31.856Z,101373.69
2022-11-30T09:48:41.189Z,101373.97
2022-11-30T09:49:45.542Z,101368.81
2022-11-30T09:50:49.772Z,101366.75
2022-11-30T09:51:55.618Z,101375.09
2022-11-30T09:53:16.691Z,101375.00
2022-11-30T09:54:23.487Z,101371.44
2022-11-30T09:55:36.352Z,101374.97
2022-11-30T09:56:40.730Z,101369.84
2022-11-30T09:57:52.749Z,101371.50
2022-11-30T09:59:00.480Z,101371.22
2022-11-30T10:00:06.700Z,101371.91
2022-11-30T10:01:20.041Z,101373.41
2022-11-30T10:02:29.355Z,101376.31
2022-11-30T10:03:32.459Z,101371.03
2022-11-30T10:04:36.246Z,101370.16
2022-11-30T10:05:48.093Z,101366.59
2022-11-30T10:07:08.990Z,101366.59
2022-11-30T10:08:27.578Z,101366.50
2022-11-30T10:09:49.452Z,101359.22
2022-11-30T10:11:20.301Z,101357.06
2022-11-30T10:12:31.180Z,101360.00
2022-11-30T10:13:42.400Z,101355.78
2022-11-30T10:15:19.028Z,101371.66
2022-11-30T10:16:54.514Z,101365.88
2022-11-30T10:18:21.614Z,101360.25
2022-11-30T10:19:51.804Z,101358.31
2022-11-30T10:21:26.121Z,101358.34
2022-11-30T10:22:37.520Z,101366.94
2022-11-30T10:24:24.671Z,101355.50
2022-11-30T10:25:40.650Z,101365.47
2022-11-30T10:26:54.847Z,101368.66
2022-11-30T10:28:49.043Z,101356.13
2022-11-30T10:29:52.119Z,101356.25
2022-11-30T10:30:57.129Z,101364.28
2022-11-30T10:32:01.393Z,101363.06
2022-11-30T10:33:08.021Z,101362.31
2022-11-30T10:34:20.737Z,101350.91
2022-11-30T10:35:44.988Z,101357.34
2022-11-30T10:36:59.200Z,101355.84
2022-11-30T10:38:11.032Z,101364.31
2022-11-30T10:39:31.923Z,101360.47
2022-11-30T10:41:04.444Z,101360.78
2022-11-30T10:42:19.472Z,101358.94
2022-11-30T10:43:38.270Z,101359.22
2022-11-30T10:44:45.821Z,101350.41
2022-11-30T10:45:50.124Z,101355.22
2022-11-30T10:46:59.600Z,101349.53
2022-11-30T10:48:28.934Z,101353.22
2022-11-30T10:49:32.553Z,101352.78
2022-11-30T10:50:35.000Z,101347.34
2022-11-30T10:51:40.386Z,101348.50
2022-11-30T10:52:51.791Z,101338.44
2022-11-30T10:53:55.667Z,101354.53
2022-11-30T10:55:04.181Z,101355.25
2022-11-30T10:56:11.607Z,101352.66
2022-11-30T10:57:14.759Z,101346.88
2022-11-30T10:58:29.794Z,101343.66
2022-11-30T10:59:47.428Z,101341.09
2022-11-30T11:01:09.950Z,101353.06
2022-11-30T11:02:42.351Z,101346.09
2022-11-30T11:03:44.781Z,101339.53
2022-11-30T11:04:47.096Z,101345.09
2022-11-30T11:06:13.466Z,101344.47
2022-11-30T11:07:16.634Z,101340.25
2022-11-30T11:08:25.907Z,101339.28
2022-11-30T11:10:02.146Z,101338.19
2022-11-30T11:11:05.266Z,101331.97
2022-11-30T11:12:20.981Z,101335.22
2022-11-30T11:13:35.499Z,101338.59
2022-11-30T11:14:39.231Z,101337.41
2022-11-30T11:15:46.061Z,101332.59
2022-11-30T11:16:53.170Z,101333.13
2022-11-30T11:18:21.558Z,101341.81
2022-11-30T11:19:31.489Z,101331.78
2022-11-30T11:20:36.229Z,101342.16
2022-11-30T11:21:38.716Z,101336.56
2022-11-30T11:22:44.140Z,101340.03
2022-11-30T11:23:50.247Z,101338.06
2022-11-30T11:25:20.956Z,101329.75
2022-11-30T11:26:29.491Z,101331.66
2022-11-30T11:27:34.002Z,101326.09
2022-11-30T11:28:43.618Z,101324.59
2022-11-30T11:29:46.898Z,101324.31
2022-11-30T11:30:49.474Z,101323.72
2022-11-30T11:31:51.895Z,101325.25
2022-11-30T11:33:03.756Z,101325.38
2022-11-30T11:34:23.566Z,101325.66
2022-11-30T11:35:37.793Z,101323.66
2022-11-30T11:36:40.110Z,101314.88
2022-11-30T11:37:52.458Z,101320.00
2022-11-30T11:38:54.877Z,101328.59
2022-11-30T11:40:16.380Z,101324.66
2022-11-30T11:41:24.474Z,101326.28
2022-11-30T11:42:31.014Z,101316.44
2022-11-30T11:43:41.086Z,101320.28
2022-11-30T11:44:43.719Z,101318.69
2022-11-30T11:45:52.922Z,101324.22
2022-11-30T11:46:59.418Z,101315.91
2022-11-30T11:48:04.463Z,101322.38
2022-11-30T11:49:18.670Z,101321.75
2022-11-30T11:50:58.218Z,101315.50
2022-11-30T11:52:02.606Z,101312.22
2022-11-30T11:53:27.090Z,101310.06
2022-11-30T11:54:36.974Z,101311.22
2022-11-30T11:55:40.156Z,101309.91
2022-11-30T11:56:42.997Z,101314.31
2022-11-30T11:57:58.330Z,101314.13
2022-11-30T11:59:34.491Z,101319.00
2022-11-30T12:00:36.944Z,101319.47
2022-11-30T12:01:52.589Z,101326.16
2022-11-30T12:03:04.661Z,101315.22
2022-11-30T12:04:20.980Z,101319.19
2022-11-30T12:05:38.405Z,101320.97
2022-11-30T12:06:44.439Z,101314.50
2022-11-30T12:08:14.779Z,101318.03
2022-11-30T12:09:25.591Z,101313.81
2022-11-30T12:11:55.999Z,101319.38
2022-11-30T12:12:59.570Z,101322.25
2022-11-30T12:14:05.349Z,101322.97
2022-11-30T12:15:13.070Z,101314.75
2022-11-30T12:16:33.727Z,101323.97
2022-11-30T12:17:55.993Z,101320.53
2022-11-30T12:19:19.165Z,101317.13
2022-11-30T12:20:31.957Z,101313.44
2022-11-30T12:21:57.259Z,101318.97
2022-11-30T12:23:34.035Z,101318.72
2022-11-30T12:24:54.822Z,101318.00
2022-11-30T12:26:13.936Z,101314.97
2022-11-30T12:27:32.633Z,101313.72
2022-11-30T12:28:49.391Z,101311.06
2022-11-30T12:30:10.028Z,101312.25
2022-11-30T12:31:18.567Z,101307.69
2022-11-30T12:32:28.432Z,101306.97
2022-11-30T12:33:39.990Z,101309.84
2022-11-30T12:35:06.337Z,101309.13
2022-11-30T12:36:28.074Z,101310.66
2022-11-30T12:37:45.858Z,101309.59
2022-11-30T12:38:50.053Z,101307.69
2022-11-30T12:40:11.188Z,101313.44